Time;durP1;ratioP1;P1;durP2;ratioP2;P2;SDS_P1;SDS_P2;PMS_P1;PMS_P2;Temp;Humidity;BMP_temperature;BMP_pressure;BME280_temperature;BME280_humidity;BME280_pressure;Samples;Min_cycle;Max_cycle;Signal;HPM_P1;HPM_P2
2022/02/28 00:01:00;;;;;;;18.00;9.40;;;;;;;-1.61;62.95;102010.64;107778;1270;109484;-72
2022/02/28 00:03:29;;;;;;;20.00;10.10;;;;;;;-1.62;63.10;102011.79;107615;1270;138164;-72
2022/02/28 00:05:58;;;;;;;17.90;9.90;;;;;;;-1.62;63.02;102011.95;107367;1270;96500;-71
2022/02/28 00:08:29;;;;;;;19.00;10.00;;;;;;;-1.64;63.24;102008.77;106288;1270;96481;-71
2022/02/28 00:10:58;;;;;;;18.80;10.30;;;;;;;-1.65;63.28;102012.49;106248;1271;137695;-71
2022/02/28 00:13:27;;;;;;;20.80;10.50;;;;;;;-1.69;63.10;102015.89;106099;1270;108623;-71
2022/02/28 00:15:56;;;;;;;17.90;9.90;;;;;;;-1.73;63.17;102015.71;106204;1269;138220;-73
2022/02/28 00:18:24;;;;;;;18.10;10.00;;;;;;;-1.80;63.10;102012.65;106271;1269;96509;-73
2022/02/28 00:20:53;;;;;;;18.30;9.20;;;;;;;-1.87;63.15;102015.10;106194;1270;98459;-73
2022/02/28 00:23:22;;;;;;;20.40;9.80;;;;;;;-1.90;63.53;102020.20;106230;1271;138044;-73
2022/02/28 00:25:50;;;;;;;18.30;9.30;;;;;;;-1.93;63.84;102021.13;107824;1269;107775;-71
2022/02/28 00:28:19;;;;;;;15.50;8.60;;;;;;;-1.91;63.73;102017.61;107593;1269;140184;-73
2022/02/28 00:30:48;;;;;;;19.00;9.50;;;;;;;-1.92;63.89;102021.69;107793;1269;94572;-71
2022/02/28 00:33:17;;;;;;;17.70;9.70;;;;;;;-1.90;64.14;102022.09;107759;1271;94771;-72
2022/02/28 00:35:45;;;;;;;17.90;8.80;;;;;;;-1.87;64.04;102021.41;107642;1270;139161;-72
2022/02/28 00:38:14;;;;;;;17.50;9.40;;;;;;;-1.83;64.41;102015.58;107889;1268;108986;-72
2022/02/28 00:40:43;;;;;;;18.60;10.00;;;;;;;-1.84;64.25;102010.10;107687;1270;138478;-72
2022/02/28 00:43:11;;;;;;;20.10;10.30;;;;;;;-1.87;64.25;102007.41;106741;1270;96482;-72
2022/02/28 00:45:40;;;;;;;19.20;10.30;;;;;;;-1.89;64.36;102011.60;106068;1270;215642;-72
2022/02/28 00:48:09;;;;;;;19.10;9.90;;;;;;;-1.88;64.31;102014.36;106326;1271;111457;-73
2022/02/28 00:50:37;;;;;;;19.50;10.30;;;;;;;-1.92;64.28;102008.05;106388;1268;108820;-72
2022/02/28 00:53:06;;;;;;;20.60;10.30;;;;;;;-1.97;64.27;102006.08;106323;1270;137952;-72
2022/02/28 00:55:35;;;;;;;23.50;9.70;;;;;;;-2.00;64.57;102005.23;107236;1269;96471;-72
2022/02/28 00:58:04;;;;;;;20.20;10.60;;;;;;;-2.06;64.35;102001.41;106709;1269;138014;-72
2022/02/28 01:00:32;;;;;;;18.40;10.00;;;;;;;-2.12;64.64;102001.64;107830;1268;111316;-72
2022/02/28 01:03:02;;;;;;;22.90;10.00;;;;;;;-2.18;65.07;102002.00;107851;1269;109151;-72
2022/02/28 01:05:31;;;;;;;19.20;9.00;;;;;;;-2.20;65.10;102003.29;107729;1270;138720;-72
2022/02/28 01:07:59;;;;;;;22.40;10.10;;;;;;;-2.19;65.31;102003.86;107886;1269;94819;-72
2022/02/28 01:10:30;;;;;;;17.50;9.40;;;;;;;-2.16;64.76;102006.91;107697;1269;138840;-72
2022/02/28 01:12:59;;;;;;;18.50;9.10;;;;;;;-2.11;65.40;102005.42;107891;1270;110168;-73
2022/02/28 01:15:30;;;;;;;18.60;9.70;;;;;;;-2.06;65.16;101999.50;107726;1269;138678;-72
2022/02/28 01:17:59;;;;;;;18.60;9.50;;;;;;;-2.06;65.27;101998.52;107868;1270;108064;-72
2022/02/28 01:20:28;;;;;;;21.70;10.50;;;;;;;-2.06;65.24;101997.66;106555;1271;96590;-72
2022/02/28 01:22:57;;;;;;;20.20;10.50;;;;;;;-2.06;65.09;101991.33;106905;1270;138636;-72
2022/02/28 01:25:25;;;;;;;23.50;10.60;;;;;;;-2.09;65.20;101990.17;106351;1270;109893;-71
2022/02/28 01:27:54;;;;;;;15.50;9.10;;;;;;;-2.13;65.19;101991.02;106323;1271;139701;-72
2022/02/28 01:30:23;;;;;;;21.60;10.70;;;;;;;-2.19;65.46;101988.84;106244;1270;107250;-71
2022/02/28 01:32:54;;;;;;;21.40;10.50;;;;;;;-2.23;65.38;101991.91;106247;1271;96586;-72
2022/02/28 01:35:22;;;;;;;20.80;10.30;;;;;;;-2.28;65.51;101987.41;107737;1268;137657;-72
2022/02/28 01:37:51;;;;;;;21.00;10.40;;;;;;;-2.30;65.99;101990.38;107881;1268;111192;-72
2022/02/28 01:40:19;;;;;;;21.80;10.30;;;;;;;-2.33;65.69;101989.36;107758;1269;138102;-72
2022/02/28 01:42:48;;;;;;;18.50;10.20;;;;;;;-2.36;65.84;101991.41;107842;1269;108809;-72
2022/02/28 01:45:22;;;;;;;16.80;9.60;;;;;;;-2.39;65.83;101996.05;107811;1269;94679;-72
2022/02/28 01:47:52;;;;;;;20.00;8.90;;;;;;;-2.42;66.20;101994.55;107807;1269;138766;-72
2022/02/28 01:50:21;;;;;;;16.10;9.40;;;;;;;-2.42;65.90;101998.15;107770;1269;110325;-72
2022/02/28 01:52:49;;;;;;;15.90;8.60;;;;;;;-2.41;66.20;101999.23;107737;1270;138381;-72
2022/02/28 01:55:20;;;;;;;19.40;10.10;;;;;;;-2.41;66.25;102004.33;107853;1269;108772;-72
2022/02/28 01:57:49;;;;;;;18.60;10.10;;;;;;;-2.41;65.99;102011.14;107789;1269;138087;-72
2022/02/28 02:00:20;;;;;;;21.00;10.60;;;;;;;-2.41;66.07;102010.63;107782;1269;94685;-72
2022/02/28 02:02:50;;;;;;;23.00;10.70;;;;;;;-2.41;66.47;102011.80;107741;1269;109816;-72
2022/02/28 02:05:19;;;;;;;21.30;10.60;;;;;;;-2.43;66.52;102014.28;107705;1270;137862;-72
2022/02/28 02:07:48;;;;;;;21.00;10.30;;;;;;;-2.46;66.40;102013.66;106825;1269;109101;-72
2022/02/28 02:10:17;;;;;;;18.30;9.80;;;;;;;-2.47;66.53;102013.59;106728;1270;137830;-72
2022/02/28 02:12:46;;;;;;;22.10;11.00;;;;;;;-2.50;66.59;102016.68;107815;1270;95300;-72
2022/02/28 02:15:18;;;;;;;21.20;10.50;;;;;;;-2.54;66.42;102015.44;107813;1270;111383;-71
2022/02/28 02:17:47;;;;;;;21.20;10.20;;;;;;;-2.55;66.64;102013.50;107717;1269;141271;-72
2022/02/28 02:20:33;;;;;;;20.60;9.80;;;;;;;-2.56;66.56;102014.16;107861;1268;108909;-72
2022/02/28 02:23:03;;;;;;;20.50;9.30;;;;;;;-2.55;66.63;102012.48;107685;1270;139411;-72
2022/02/28 02:25:33;;;;;;;21.20;9.60;;;;;;;-2.56;66.70;102013.30;107798;1268;95218;-72
2022/02/28 02:28:03;;;;;;;17.10;9.70;;;;;;;-2.54;67.06;102008.43;107760;1269;138440;-71
2022/02/28 02:30:32;;;;;;;18.90;9.70;;;;;;;-2.51;67.14;102011.30;107824;1270;107619;-72
2022/02/28 02:33:01;;;;;;;21.10;10.00;;;;;;;-2.51;67.22;102011.02;107782;1270;108972;-71
2022/02/28 02:35:31;;;;;;;19.60;9.80;;;;;;;-2.49;67.00;102015.04;107680;1270;137777;-71
2022/02/28 02:37:59;;;;;;;19.90;10.60;;;;;;;-2.47;67.09;102016.64;107817;1270;94658;-72
2022/02/28 02:40:28;;;;;;;18.10;9.90;;;;;;;-2.48;67.01;102015.42;107593;1269;138008;-72
2022/02/28 02:42:57;;;;;;;16.90;9.70;;;;;;;-2.50;66.98;102011.59;106311;1271;108287;-72
2022/02/28 02:45:25;;;;;;;20.60;10.20;;;;;;;-2.54;66.95;102007.95;106301;1270;108417;-71
2022/02/28 02:47:54;;;;;;;21.60;10.10;;;;;;;-2.56;67.03;102008.84;107661;1269;138512;-72
2022/02/28 02:50:23;;;;;;;17.00;9.90;;;;;;;-2.62;67.20;102007.20;107845;1269;95704;-72
2022/02/28 02:52:51;;;;;;;18.70;9.60;;;;;;;-2.68;67.38;102009.83;107709;1269;138183;-72
2022/02/28 02:55:21;;;;;;;19.10;9.10;;;;;;;-2.71;67.31;102006.75;107801;1270;108799;-72
2022/02/28 02:57:50;;;;;;;14.10;8.50;;;;;;;-2.74;67.17;102009.02;107745;1270;139188;-71
2022/02/28 03:00:21;;;;;;;20.10;10.20;;;;;;;-2.76;67.82;102008.72;107845;1270;94933;-72
2022/02/28 03:03:02;;;;;;;23.00;11.40;;;;;;;-2.76;67.47;102008.73;107769;1270;94827;-72
2022/02/28 03:05:32;;;;;;;28.30;15.40;;;;;;;-2.77;67.40;102008.35;107400;1270;138882;-71
2022/02/28 03:08:00;;;;;;;30.10;16.80;;;;;;;-2.75;67.52;102007.25;106360;1270;108111;-71
2022/02/28 03:10:29;;;;;;;28.30;16.90;;;;;;;-2.76;67.76;102009.59;106118;1270;137931;-71
2022/02/28 03:12:59;;;;;;;32.60;17.60;;;;;;;-2.75;67.73;102010.31;106186;1270;96491;-71
2022/02/28 03:15:27;;;;;;;30.90;16.80;;;;;;;-2.75;67.85;102012.16;106236;1270;96755;-70
2022/02/28 03:17:57;;;;;;;27.10;14.60;;;;;;;-2.81;67.82;102013.44;106224;1268;137511;-72
2022/02/28 03:20:26;;;;;;;26.60;14.70;;;;;;;-2.86;67.98;102014.86;106195;1270;108307;-72
2022/02/28 03:22:55;;;;;;;26.10;14.10;;;;;;;-2.91;67.96;102021.91;106191;1270;138481;-72
2022/02/28 03:25:25;;;;;;;25.90;13.40;;;;;;;-2.96;68.13;102019.60;107841;1270;94778;-72
2022/02/28 03:27:59;;;;;;;24.70;14.00;;;;;;;-3.04;68.21;102021.95;107646;1270;138028;-72
2022/02/28 03:30:29;;;;;;;21.80;13.00;;;;;;;-3.07;68.45;102022.14;107597;1270;111292;-72
2022/02/28 03:32:58;;;;;;;23.30;12.80;;;;;;;-3.08;68.49;102022.77;106243;1268;108976;-72
2022/02/28 03:35:26;;;;;;;21.20;11.80;;;;;;;-3.07;68.46;102020.76;105975;1270;138790;-73
2022/02/28 03:37:55;;;;;;;20.60;11.80;;;;;;;-3.05;68.42;102020.23;106185;1270;96614;-73
2022/02/28 03:40:23;;;;;;;18.60;10.70;;;;;;;-3.01;68.70;102019.86;106212;1269;138451;-73
2022/02/28 03:42:52;;;;;;;18.70;10.70;;;;;;;-3.00;68.21;102020.29;106171;1271;111401;-72
2022/02/28 03:45:21;;;;;;;18.20;9.30;;;;;;;-2.99;68.27;102023.02;106214;1268;108031;-72
2022/02/28 03:47:50;;;;;;;19.40;10.00;;;;;;;-2.99;68.39;102023.23;106263;1270;137685;-73
2022/02/28 03:50:57;;;;;;;16.00;9.20;;;;;;;-2.96;68.98;102027.11;105687;1276;96492;-72
2022/02/28 03:53:25;;;;;;;22.70;9.50;;;;;;;-2.95;68.77;102026.64;105780;1276;138296;-72
2022/02/28 03:55:57;;;;;;;17.60;9.50;;;;;;;-2.97;68.54;102028.73;106032;1270;110933;-72
2022/02/28 03:58:26;;;;;;;18.30;10.20;;;;;;;-3.02;68.40;102028.84;106221;1270;137894;-71
2022/02/28 04:00:56;;;;;;;17.90;9.30;;;;;;;-3.07;68.71;102035.23;107883;1269;107412;-72
2022/02/28 04:03:25;;;;;;;17.70;10.00;;;;;;;-3.10;68.73;102033.73;107767;1270;95014;-72
2022/02/28 04:05:53;;;;;;;18.00;9.50;;;;;;;-3.14;68.61;102029.07;107635;1269;139281;-72
2022/02/28 04:08:22;;;;;;;18.20;9.10;;;;;;;-3.17;68.56;102032.86;107822;1270;109197;-72
2022/02/28 04:10:51;;;;;;;21.00;10.10;;;;;;;-3.19;68.88;102032.42;107722;1271;138488;-72
2022/02/28 04:13:19;;;;;;;19.10;9.00;;;;;;;-3.19;68.86;102032.77;106469;1269;109066;-72
2022/02/28 04:15:48;;;;;;;17.50;9.30;;;;;;;-3.16;68.67;102035.46;106162;1270;138802;-71
2022/02/28 04:18:17;;;;;;;20.80;9.70;;;;;;;-3.13;68.50;102033.89;107608;1269;95126;-72
2022/02/28 04:21:05;;;;;;;16.70;8.90;;;;;;;-3.12;68.43;102038.88;106303;1270;109473;-73
2022/02/28 04:23:33;;;;;;;19.20;9.70;;;;;;;-3.16;68.56;102039.38;106135;1270;138254;-72
2022/02/28 04:26:04;;;;;;;18.60;9.40;;;;;;;-3.15;69.06;102040.10;106278;1268;107970;-72
2022/02/28 04:28:33;;;;;;;23.20;10.60;;;;;;;-3.16;68.54;102039.87;107748;1268;138578;-73
2022/02/28 04:31:01;;;;;;;18.60;10.00;;;;;;;-3.22;68.66;102042.81;107776;1269;95862;-73
2022/02/28 04:33:31;;;;;;;18.60;9.70;;;;;;;-3.27;68.76;102042.70;107840;1269;111192;-72
2022/02/28 04:36:00;;;;;;;16.60;9.60;;;;;;;-3.33;68.62;102043.59;107718;1270;137629;-72
2022/02/28 04:38:28;;;;;;;17.90;9.10;;;;;;;-3.37;68.71;102046.64;107806;1270;109050;-73
2022/02/28 04:40:57;;;;;;;17.30;9.50;;;;;;;-3.40;69.03;102044.25;107700;1270;139249;-72
2022/02/28 04:43:26;;;;;;;16.40;9.80;;;;;;;-3.42;68.98;102049.23;107847;1270;94566;-72
2022/02/28 04:45:54;;;;;;;19.70;9.40;;;;;;;-3.39;68.83;102050.59;107722;1268;138427;-72
2022/02/28 04:48:23;;;;;;;16.60;9.30;;;;;;;-3.36;68.94;102050.77;107851;1268;107611;-72
2022/02/28 04:51:28;;;;;;;19.10;9.90;;;;;;;-3.33;68.83;102048.17;107777;1269;109451;-72
2022/02/28 04:53:56;;;;;;;18.60;9.90;;;;;;;-3.30;68.85;102049.14;107709;1269;137849;-73
2022/02/28 04:56:25;;;;;;;20.60;10.10;;;;;;;-3.27;69.10;102043.69;107899;1270;94869;-73
2022/02/28 04:58:54;;;;;;;19.30;9.80;;;;;;;-3.27;68.91;102042.19;107718;1270;137865;-72
2022/02/28 05:01:33;;;;;;;21.60;10.30;;;;;;;-3.27;68.78;102044.55;107773;1270;107881;-72
2022/02/28 05:04:10;;;;;;;22.90;10.00;;;;;;;-3.32;68.46;102046.16;107690;1270;139031;-73
2022/02/28 05:06:39;;;;;;;19.50;9.90;;;;;;;-3.37;68.61;102047.82;107022;1271;96494;-72
2022/02/28 05:09:09;;;;;;;20.30;9.70;;;;;;;-3.39;68.71;102053.13;106251;1271;96497;-73
2022/02/28 05:11:39;;;;;;;20.30;9.70;;;;;;;-3.42;68.79;102051.06;106314;1271;138366;-74
2022/02/28 05:14:09;;;;;;;19.00;9.30;;;;;;;-3.46;68.73;102052.38;106264;1271;107787;-73
2022/02/28 05:16:38;;;;;;;17.90;9.20;;;;;;;-3.48;69.07;102052.98;105951;1270;139891;-72
2022/02/28 05:19:06;;;;;;;18.60;9.60;;;;;;;-3.47;68.99;102051.30;106268;1270;96521;-72
2022/02/28 05:21:36;;;;;;;16.50;9.10;;;;;;;-3.47;68.94;102051.64;106357;1270;96485;-72
2022/02/28 05:24:06;;;;;;;20.50;9.20;;;;;;;-3.47;68.98;102058.97;106061;1270;138673;-73
2022/02/28 05:26:35;;;;;;;17.80;9.00;;;;;;;-3.44;68.80;102064.77;106279;1270;107997;-72
2022/02/28 05:29:05;;;;;;;22.80;9.40;;;;;;;-3.39;68.88;102068.45;107719;1270;137834;-74
2022/02/28 05:31:33;;;;;;;15.90;9.00;;;;;;;-3.36;68.86;102070.48;106380;1270;98461;-72
2022/02/28 05:34:24;;;;;;;17.80;8.70;;;;;;;-3.33;68.83;102071.48;106249;1271;137907;-71
2022/02/28 05:36:53;;;;;;;19.60;9.20;;;;;;;-3.32;68.66;102074.25;106361;1268;110621;-73
2022/02/28 05:39:42;;;;;;;18.80;8.70;;;;;;;-3.29;68.94;102069.95;106369;1268;107881;-73
2022/02/28 05:42:13;;;;;;;21.40;9.50;;;;;;;-3.27;68.65;102075.51;106080;1270;137907;-73
2022/02/28 05:44:46;;;;;;;22.00;9.70;;;;;;;-3.21;68.91;102080.11;106069;1271;96552;-73
2022/02/28 05:47:16;;;;;;;20.90;10.40;;;;;;;-3.12;68.85;102081.24;106177;1270;137906;-72
2022/02/28 05:49:47;;;;;;;19.00;9.90;;;;;;;-3.03;68.86;102080.72;107772;1269;111272;-71
2022/02/28 05:52:16;;;;;;;21.10;10.80;;;;;;;-2.94;68.94;102083.05;107741;1270;139069;-71
2022/02/28 05:54:44;;;;;;;20.70;10.10;;;;;;;-2.81;68.73;102082.71;106820;1269;108932;-72
2022/02/28 05:57:13;;;;;;;19.00;9.60;;;;;;;-2.63;68.23;102084.30;106416;1271;96542;-72
2022/02/28 05:59:42;;;;;;;20.40;9.40;;;;;;;-2.41;68.34;102078.25;106314;1271;138291;-73
2022/02/28 06:02:10;;;;;;;20.30;9.80;;;;;;;-2.14;67.81;102078.23;106341;1268;110287;-72
2022/02/28 06:04:39;;;;;;;16.90;9.10;;;;;;;-1.80;67.12;102079.67;106179;1268;137870;-71
2022/02/28 06:07:08;;;;;;;17.70;9.20;;;;;;;-1.36;66.56;102082.56;106290;1270;108704;-72
2022/02/28 06:09:39;;;;;;;16.70;8.50;;;;;;;-0.76;65.67;102081.14;106344;1268;96472;-72
2022/02/28 06:12:10;;;;;;;21.00;10.00;;;;;;;-0.11;64.89;102081.65;106179;1269;138396;-72
2022/02/28 06:14:38;;;;;;;21.90;9.40;;;;;;;0.66;63.86;102085.52;107861;1269;110021;-72
2022/02/28 06:17:07;;;;;;;18.20;8.50;;;;;;;1.53;63.23;102079.02;107555;1270;137506;-73
2022/02/28 06:19:36;;;;;;;19.80;9.60;;;;;;;2.49;62.50;102076.61;106310;1269;108945;-72
2022/02/28 06:22:04;;;;;;;17.40;8.20;;;;;;;3.34;61.77;102075.45;106066;1271;137798;-70
2022/02/28 06:24:33;;;;;;;17.80;8.60;;;;;;;3.95;60.78;102070.43;106359;1271;97924;-71
2022/02/28 06:27:02;;;;;;;15.10;8.40;;;;;;;4.40;60.19;102076.13;106318;1270;112256;-73
2022/02/28 06:29:30;;;;;;;16.40;8.00;;;;;;;4.70;59.00;102076.96;106057;1270;138359;-73
2022/02/28 06:31:59;;;;;;;18.90;7.70;;;;;;;4.82;57.64;102082.90;106183;1268;108998;-72
2022/02/28 06:34:31;;;;;;;16.60;8.10;;;;;;;5.02;56.70;102085.39;106255;1268;137848;-73
2022/02/28 06:37:00;;;;;;;13.30;7.80;;;;;;;5.33;55.92;102086.34;107823;1270;96198;-74
2022/02/28 06:39:29;;;;;;;14.80;8.30;;;;;;;5.78;55.29;102087.66;106758;1270;111237;-73
2022/02/28 06:41:57;;;;;;;16.50;8.40;;;;;;;6.32;54.07;102086.46;106167;1271;138739;-73
2022/02/28 06:44:28;;;;;;;14.50;8.20;;;;;;;6.86;52.89;102089.61;106303;1270;107882;-73
2022/02/28 06:46:56;;;;;;;16.40;8.80;;;;;;;7.45;51.81;102091.67;106056;1270;138680;-73
2022/02/28 06:49:25;;;;;;;14.90;9.00;;;;;;;8.09;50.64;102094.30;106284;1271;98316;-73
2022/02/28 06:51:53;;;;;;;12.50;8.80;;;;;;;8.77;49.70;102095.28;106213;1271;137943;-72
2022/02/28 06:54:22;;;;;;;14.50;8.50;;;;;;;9.61;48.52;102087.36;106219;1270;107895;-73
2022/02/28 06:56:51;;;;;;;13.20;8.20;;;;;;;10.49;47.39;102085.77;106289;1271;108848;-72
2022/02/28 06:59:19;;;;;;;13.90;7.60;;;;;;;11.41;45.93;102085.56;106143;1270;138005;-74
2022/02/28 07:01:48;;;;;;;12.70;7.70;;;;;;;12.29;44.52;102083.13;106179;1270;98198;-74
2022/02/28 07:04:34;;;;;;;;;;;;;;;13.21;43.34;102079.61;106165;1271;137801;-73
2022/02/28 07:07:04;;;;;;;14.80;7.90;;;;;;;13.91;42.31;102079.06;106291;1270;107893;-72
2022/02/28 07:09:38;;;;;;;13.70;7.90;;;;;;;14.71;41.34;102083.04;107831;1270;108783;-73
2022/02/28 07:12:10;;;;;;;12.80;7.70;;;;;;;15.66;40.71;102080.80;107672;1269;138084;-73
2022/02/28 07:14:38;;;;;;;11.10;7.30;;;;;;;16.56;39.54;102083.20;107809;1271;96207;-73
2022/02/28 07:17:07;;;;;;;11.60;8.00;;;;;;;17.22;37.58;102078.67;107625;1268;137856;-72
2022/02/28 07:19:36;;;;;;;12.10;7.80;;;;;;;17.77;37.20;102080.64;107846;1270;107893;-74
2022/02/28 07:22:05;;;;;;;14.50;7.20;;;;;;;18.20;36.36;102081.63;107671;1268;138262;-74
2022/02/28 07:24:33;;;;;;;12.00;7.60;;;;;;;18.62;35.54;102082.63;107581;1269;96523;-73
2022/02/28 07:27:02;;;;;;;13.30;8.00;;;;;;;18.99;34.99;102083.02;106303;1270;97714;-74
2022/02/28 07:29:31;;;;;;;13.40;7.80;;;;;;;19.49;34.35;102084.58;106177;1270;137941;-73
2022/02/28 07:32:02;;;;;;;11.40;7.60;;;;;;;20.10;33.98;102083.65;106362;1269;108182;-74
2022/02/28 07:34:30;;;;;;;11.30;7.70;;;;;;;20.58;33.03;102081.20;106154;1271;139933;-74
2022/02/28 07:36:59;;;;;;;15.80;11.10;;;;;;;21.03;32.53;102078.44;106207;1271;97858;-73
2022/02/28 07:39:28;;;;;;;14.50;10.00;;;;;;;21.34;31.13;102082.67;106304;1268;97953;-74
2022/02/28 07:42:00;;;;;;;16.10;8.90;;;;;;;21.49;30.42;102084.07;106034;1268;138225;-74
2022/02/28 07:44:29;;;;;;;13.60;7.70;;;;;;;21.65;30.34;102086.80;106317;1270;108453;-75
2022/02/28 07:46:58;;;;;;;12.00;7.40;;;;;;;21.96;29.89;102092.52;106135;1270;139062;-74
2022/02/28 07:49:32;;;;;;;15.60;7.80;;;;;;;22.30;29.42;102092.91;106394;1271;97842;-74
2022/02/28 07:52:02;;;;;;;15.90;7.30;;;;;;;22.60;27.87;102097.02;106203;1271;138152;-69
2022/02/28 07:54:30;;;;;;;13.40;8.00;;;;;;;22.71;27.62;102096.80;106199;1271;112596;-73
2022/02/28 07:56:59;;;;;;;12.50;7.60;;;;;;;22.74;27.83;102099.98;106353;1271;109121;-75
2022/02/28 07:59:28;;;;;;;14.00;7.50;;;;;;;22.96;27.54;102102.36;107451;1270;138162;-77
2022/02/28 08:01:56;;;;;;;10.80;6.90;;;;;;;23.02;26.23;102103.80;106467;1270;97838;-73
2022/02/28 08:04:25;;;;;;;13.30;7.20;;;;;;;22.81;25.68;102107.40;106047;1270;138170;-75
2022/02/28 08:06:54;;;;;;;11.90;7.10;;;;;;;22.71;25.90;102111.86;106315;1271;112477;-74
2022/02/28 08:09:24;;;;;;;14.30;7.90;;;;;;;22.57;25.96;102114.55;106192;1271;108990;-72
2022/02/28 08:11:53;;;;;;;12.20;7.40;;;;;;;22.48;24.97;102112.89;106249;1270;138293;-72
2022/02/28 08:14:22;;;;;;;9.70;6.50;;;;;;;22.05;24.08;102112.11;106220;1270;97923;-73
2022/02/28 08:16:51;;;;;;;12.60;6.60;;;;;;;21.67;24.67;102115.41;106180;1271;139319;-74
2022/02/28 08:19:19;;;;;;;9.60;6.60;;;;;;;21.46;24.63;102119.59;106176;1269;112780;-72
2022/02/28 08:21:48;;;;;;;12.90;6.40;;;;;;;21.24;24.85;102121.72;106204;1270;109224;-73
2022/02/28 08:24:17;;;;;;;12.20;7.00;;;;;;;21.04;25.17;102124.05;106154;1271;138133;-73
2022/02/28 08:26:46;;;;;;;10.60;6.20;;;;;;;21.19;25.59;102119.46;106346;1270;98011;-70
2022/02/28 08:29:14;;;;;;;11.90;6.90;;;;;;;21.30;25.41;102122.14;106091;1270;138512;-72
2022/02/28 08:31:43;;;;;;;11.90;6.30;;;;;;;21.47;25.54;102125.23;106118;1271;111800;-72
2022/02/28 08:34:12;;;;;;;11.40;6.00;;;;;;;21.73;25.63;102124.13;105770;1269;139039;-75
2022/02/28 08:36:41;;;;;;;12.40;6.40;;;;;;;21.96;24.68;102124.21;106001;1268;108071;-75
2022/02/28 08:39:09;;;;;;;10.00;5.50;;;;;;;21.95;24.20;102123.39;106044;1270;98591;-76
2022/02/28 08:41:38;;;;;;;11.20;6.40;;;;;;;22.00;24.29;102128.77;107521;1270;137822;-75
2022/02/28 08:44:08;;;;;;;9.00;4.90;;;;;;;21.90;23.63;102127.02;107730;1270;111441;-71
2022/02/28 08:46:37;;;;;;;12.90;8.40;;;;;;;21.66;23.40;102130.31;106515;1271;139190;-74
2022/02/28 08:49:06;;;;;;;15.70;9.50;;;;;;;21.43;23.94;102128.44;106277;1270;107986;-72
2022/02/28 08:51:37;;;;;;;8.40;4.80;;;;;;;21.29;24.15;102131.39;106300;1269;97837;-72
2022/02/28 08:54:06;;;;;;;9.00;5.00;;;;;;;21.37;24.48;102134.55;106249;1271;139245;-73
2022/02/28 08:56:35;;;;;;;7.90;4.90;;;;;;;21.49;24.03;102135.37;106287;1271;111757;-75
2022/02/28 08:59:03;;;;;;;7.40;4.30;;;;;;;21.45;24.12;102138.25;106181;1270;138575;-75
2022/02/28 09:01:33;;;;;;;10.90;4.50;;;;;;;21.45;22.73;102138.60;106262;1271;108221;-77
2022/02/28 09:04:02;;;;;;;7.40;4.90;;;;;;;21.31;23.94;102137.15;106147;1271;138334;-77
2022/02/28 09:06:31;;;;;;;8.90;4.70;;;;;;;21.36;23.89;102138.28;106288;1271;97826;-75
2022/02/28 09:09:00;;;;;;;8.70;4.40;;;;;;;21.40;23.64;102140.22;106353;1271;112661;-76
2022/02/28 09:11:29;;;;;;;8.40;4.40;;;;;;;21.35;23.47;102146.83;106046;1271;138007;-75
2022/02/28 09:13:57;;;;;;;6.90;3.70;;;;;;;21.37;23.39;102147.83;105895;1271;108194;-76
2022/02/28 09:16:27;;;;;;;6.30;3.70;;;;;;;21.15;22.40;102149.34;105841;1270;138658;-74
2022/02/28 09:18:56;;;;;;;9.60;6.30;;;;;;;20.66;22.97;102154.73;105958;1271;97953;-75
2022/02/28 09:21:26;;;;;;;11.50;6.30;;;;;;;20.51;23.79;102155.77;105966;1270;109794;-78
2022/02/28 09:23:55;;;;;;;7.30;4.40;;;;;;;20.42;23.31;102155.42;105785;1271;138356;-78
2022/02/28 09:26:23;;;;;;;6.80;4.50;;;;;;;20.26;23.64;102152.39;106127;1271;107936;-75
2022/02/28 09:28:52;;;;;;;7.70;4.60;;;;;;;20.26;23.36;102158.20;105753;1271;137873;-76
2022/02/28 09:31:21;;;;;;;7.50;4.50;;;;;;;20.13;23.93;102151.55;105954;1271;97845;-75
2022/02/28 09:33:49;;;;;;;7.50;3.60;;;;;;;20.20;23.80;102153.00;105959;1270;111736;-72
2022/02/28 09:36:18;;;;;;;6.80;4.10;;;;;;;20.15;23.31;102152.14;105770;1271;137767;-74
2022/02/28 09:38:47;;;;;;;6.80;3.70;;;;;;;19.86;22.77;102152.30;105917;1270;107828;-73
2022/02/28 09:41:41;;;;;;;6.30;3.90;;;;;;;19.74;24.11;102157.92;105903;1271;138149;-75
2022/02/28 09:44:28;;;;;;;;;;;;;;;20.08;24.28;102155.79;105974;1270;97853;-75
2022/02/28 09:47:18;;;;;;;9.20;3.50;;;;;;;20.22;23.91;102162.81;106003;1270;124219;-74
2022/02/28 09:50:13;;;;;;;;;;;;;;;20.20;24.19;102163.23;105910;1271;106849;-73
2022/02/28 09:53:00;;;;;;;8.30;4.20;;;;;;;20.36;23.95;102166.98;106128;1270;124361;-73
2022/02/28 09:55:59;;;;;;;8.20;4.00;;;;;;;20.42;23.86;102163.91;105984;1270;97834;-72
2022/02/28 09:58:58;;;;;;;5.30;3.50;;;;;;;20.61;24.30;102165.23;105685;1269;138037;-73
2022/02/28 10:01:47;;;;;;;7.80;4.10;;;;;;;20.33;23.98;102165.89;105809;1270;111431;-73
2022/02/28 10:04:17;;;;;;;6.90;4.10;;;;;;;19.88;24.19;102165.29;105856;1268;138027;-72
2022/02/28 10:06:46;;;;;;;11.00;4.20;;;;;;;19.48;24.08;102167.35;105999;1271;107742;-73
2022/02/28 10:09:19;;;;;;;6.10;3.70;;;;;;;19.47;23.97;102165.66;106037;1270;97918;-72
2022/02/28 10:11:51;;;;;;;7.40;3.80;;;;;;;19.64;24.48;102163.05;105970;1271;137895;-73
2022/02/28 10:14:20;;;;;;;5.20;3.60;;;;;;;19.57;23.97;102163.52;106109;1271;112450;-74
2022/02/28 10:16:57;;;;;;;6.50;3.60;;;;;;;19.41;23.91;102162.16;105776;1270;137894;-73
2022/02/28 10:19:29;;;;;;;6.30;3.50;;;;;;;18.74;23.10;102167.82;105938;1268;107824;-74
2022/02/28 10:22:00;;;;;;;8.70;3.80;;;;;;;17.96;23.59;102167.45;107501;1271;139206;-72
2022/02/28 10:24:32;;;;;;;8.00;3.80;;;;;;;17.51;23.80;102165.88;107572;1271;96246;-72
2022/02/28 10:27:19;;;;;;;6.80;3.60;;;;;;;17.11;24.23;102168.65;107673;1269;112566;-73
2022/02/28 10:30:30;;;;;;;5.30;3.50;;;;;;;16.84;24.58;102169.91;106232;1271;137903;-77
2022/02/28 10:33:17;;;;;;;7.70;3.90;;;;;;;16.17;24.49;102170.60;107546;1271;109040;-74
2022/02/28 10:36:11;;;;;;;;;;;;;;;16.17;25.17;102177.45;107479;1271;138338;-73
2022/02/28 10:38:48;;;;;;;10.20;4.20;;;;;;;16.45;25.59;102177.11;107514;1269;96850;-73
2022/02/28 10:41:19;;;;;;;8.00;3.30;;;;;;;16.61;25.38;102175.96;107540;1270;138837;-74
2022/02/28 10:43:48;;;;;;;6.90;3.40;;;;;;;16.83;25.64;102174.52;107838;1269;109926;-73
2022/02/28 10:46:20;;;;;;;5.00;3.20;;;;;;;17.07;25.67;102175.80;107612;1270;138816;-72
2022/02/28 10:49:00;;;;;;;7.00;3.30;;;;;;;17.36;25.71;102169.48;107759;1270;96160;-73
2022/02/28 10:51:30;;;;;;;6.30;3.40;;;;;;;17.74;25.57;102168.17;107823;1269;96656;-72
2022/02/28 10:54:10;;;;;;;4.30;3.10;;;;;;;18.00;24.87;102160.11;107652;1269;138517;-73
2022/02/28 10:56:50;;;;;;;5.40;2.70;;;;;;;17.84;23.17;102160.81;107782;1270;108820;-72
2022/02/28 10:59:21;;;;;;;6.90;2.40;;;;;;;17.26;22.26;102170.67;107690;1270;137999;-72
2022/02/28 11:01:50;;;;;;;4.70;2.80;;;;;;;16.49;22.29;102167.85;107805;1270;97184;-72
2022/02/28 11:04:29;;;;;;;4.40;2.80;;;;;;;16.07;23.61;102165.41;107671;1270;138164;-72
2022/02/28 11:06:59;;;;;;;6.90;3.00;;;;;;;15.86;24.14;102170.48;107814;1269;111426;-72
2022/02/28 11:09:34;;;;;;;5.00;2.70;;;;;;;15.73;24.15;102175.35;107875;1269;109112;-72
2022/02/28 11:12:26;;;;;;;3.60;2.40;;;;;;;15.34;22.93;102176.01;107569;1270;139547;-74
2022/02/28 11:14:57;;;;;;;5.20;2.50;;;;;;;14.67;23.04;102176.46;107765;1271;96229;-74
2022/02/28 11:17:28;;;;;;;3.50;2.30;;;;;;;14.30;23.54;102173.23;107511;1271;137683;-73
2022/02/28 11:19:59;;;;;;;5.40;2.30;;;;;;;14.19;24.42;102174.30;107634;1271;111522;-74
2022/02/28 11:22:31;;;;;;;4.40;2.20;;;;;;;14.22;23.77;102172.66;107462;1269;139005;-71